Palma Ceia, Florida
Current Conditions -  °F | °C
As of 6:53 AM on Friday 28 Nov 2014 (Local Time) from KTPA Reporting Station
Clear Clear  
Wind Chill: 40°   Ceiling: Unl
Heat Index: 44°   Visibility: 10mi
Dew Point: 33°   Wind: 8mph
Humidity: 65%   Direction: 20°NNE
Pressure: 30.33"   Gusts: NA
Location:  27.9448°N, 82.5145°W
Report Text: KTPA 281153Z 02007KT 10SM CLR 07/01 A3033 RMK AO2 SLP270 T00670006 10106 20067 53008
Loading
Personal Weather Stations






























Interactive Weather Map New forecast layout! Learn more

10-Day Weather Forecast

Advertisements
Track Severe Weather on mobile